Time;durP1;ratioP1;P1;durP2;ratioP2;P2;SDS_P1;SDS_P2;PMS_P1;PMS_P2;Temp;Humidity;BMP_temperature;BMP_pressure;BME280_temperature;BME280_humidity;BME280_pressure;Samples;Min_cycle;Max_cycle;Signal;HPM_P1;HPM_P2
2022/06/23 00:00:30;;;;;;;6.55;3.08;;;;;;;18.13;86.33;100112.00;8317522;28;20040;-59
2022/06/23 00:04:35;;;;;;;8.48;3.10;;;;;;;18.19;85.59;100105.72;8326351;28;20052;-59
2022/06/23 00:08:46;;;;;;;5.50;3.28;;;;;;;18.34;86.95;100100.97;8317115;28;20034;-59
2022/06/23 00:12:47;;;;;;;3.63;3.10;;;;;;;18.60;86.85;100095.69;8307326;28;20037;-59
2022/06/23 00:16:47;;;;;;;4.07;2.97;;;;;;;18.05;89.63;100092.97;8327848;28;20041;-59
2022/06/23 00:20:57;;;;;;;4.87;2.50;;;;;;;18.26;88.78;100095.66;8305713;28;20038;-59
2022/06/23 00:25:02;;;;;;;4.80;2.50;;;;;;;18.17;87.07;100091.38;8313999;28;20314;-59
2022/06/23 00:29:10;;;;;;;4.28;2.92;;;;;;;18.54;87.28;100093.75;8327419;28;20091;-59
2022/06/23 00:33:21;;;;;;;3.95;2.38;;;;;;;18.14;88.67;100101.91;8311573;28;20033;-59
2022/06/23 00:37:21;;;;;;;3.80;1.98;;;;;;;18.49;80.59;100101.75;8314441;28;20057;-59
2022/06/23 00:41:28;;;;;;;5.45;2.58;;;;;;;18.53;82.19;100100.28;8300788;28;20188;-59
2022/06/23 00:45:39;;;;;;;3.53;2.17;;;;;;;18.50;82.67;100097.94;8306086;28;20042;-59
2022/06/23 00:50:02;;;;;;;3.85;2.55;;;;;;;18.62;83.89;100095.50;8304271;28;20113;-59
2022/06/23 00:54:11;;;;;;;5.32;3.50;;;;;;;18.23;86.53;100085.09;8307496;28;20038;-59
2022/06/23 00:58:38;;;;;;;4.65;2.75;;;;;;;18.38;86.77;100087.75;8315195;28;20410;-59
2022/06/23 01:02:44;;;;;;;6.15;3.10;;;;;;;18.10;87.63;100090.50;8295026;28;20409;-59
2022/06/23 01:06:56;;;;;;;5.85;4.00;;;;;;;18.04;90.86;100094.03;8308615;28;20052;-59
2022/06/23 01:11:24;;;;;;;6.88;4.18;;;;;;;18.10;90.39;100087.75;8298344;28;20038;-59
2022/06/23 01:15:35;;;;;;;5.55;4.18;;;;;;;18.16;89.74;100088.84;8322780;28;20523;-59
2022/06/23 01:20:03;;;;;;;7.53;4.30;;;;;;;18.21;88.19;100092.66;8312504;28;20038;-59
2022/06/23 01:28:41;;;;;;;6.43;4.50;;;;;;;18.29;88.32;100100.72;8296171;27;20390;-59
2022/06/23 01:32:47;;;;;;;10.70;5.30;;;;;;;18.20;89.95;100096.44;8300918;28;20034;-59
2022/06/23 01:36:56;;;;;;;5.63;4.75;;;;;;;18.10;91.39;100104.19;8295322;28;20713;-59
2022/06/23 01:41:10;;;;;;;6.13;5.00;;;;;;;17.87;92.75;100095.34;8295852;28;20045;-59
2022/06/23 01:45:26;;;;;;;5.82;4.47;;;;;;;17.42;96.25;100102.03;8309847;28;20033;-59
2022/06/23 01:49:38;;;;;;;11.48;5.38;;;;;;;17.41;96.55;100110.44;8294842;28;20493;-59
2022/06/23 01:53:38;;;;;;;8.63;5.55;;;;;;;17.34;97.78;100101.31;8286440;28;20042;-59
2022/06/23 01:57:46;;;;;;;8.40;6.07;;;;;;;17.33;97.86;100107.84;8286276;28;20517;-59
2022/06/23 02:02:02;;;;;;;14.27;6.07;;;;;;;17.25;99.14;100105.22;8289153;28;20323;-59
2022/06/23 02:06:13;;;;;;;12.50;6.18;;;;;;;17.33;98.80;100107.84;8318481;28;20049;-59
2022/06/23 02:14:58;;;;;;;9.40;6.22;;;;;;;17.70;97.17;100110.34;8291160;28;20375;-59
2022/06/23 02:19:20;;;;;;;8.68;6.28;;;;;;;17.88;95.87;100102.53;8262316;28;20083;-59
2022/06/23 02:23:34;;;;;;;9.38;5.65;;;;;;;17.87;96.82;100117.22;8287071;28;20064;-59
2022/06/23 02:31:58;;;;;;;10.68;5.55;;;;;;;18.08;95.79;100119.09;8349510;27;20362;-59
2022/06/23 02:36:18;;;;;;;6.20;5.13;;;;;;;18.10;95.56;100123.31;8336701;28;20041;-59
2022/06/23 02:45:07;;;;;;;6.70;5.43;;;;;;;17.88;98.79;100129.88;8403275;27;20873;-59
2022/06/23 02:49:34;;;;;;;12.93;6.97;;;;;;;17.73;100.00;100120.03;8382111;27;20040;-59
2022/06/23 02:58:19;;;;;;;8.88;5.80;;;;;;;17.74;100.00;100119.00;8402390;27;20361;-59
2022/06/23 03:02:48;;;;;;;10.13;6.60;;;;;;;17.45;100.00;100122.72;8391251;27;20036;-59
2022/06/23 03:07:01;;;;;;;12.63;6.30;;;;;;;17.35;100.00;100124.88;8382920;27;20393;-59
2022/06/23 03:11:16;;;;;;;10.48;6.47;;;;;;;17.27;100.00;100127.75;8368134;28;20488;-59
2022/06/23 03:15:45;;;;;;;10.70;6.35;;;;;;;17.36;100.00;100119.22;8395641;27;20033;-59
2022/06/23 03:20:02;;;;;;;9.07;6.38;;;;;;;17.51;100.00;100121.94;8387825;27;20040;-59
2022/06/23 03:24:08;;;;;;;7.18;6.20;;;;;;;17.65;100.00;100123.75;8363495;28;20048;-59
2022/06/23 03:28:22;;;;;;;8.60;5.95;;;;;;;17.66;100.00;100130.94;8367137;28;20037;-59
2022/06/23 03:32:32;;;;;;;15.35;6.40;;;;;;;17.67;100.00;100126.28;8376938;27;20404;-59
2022/06/23 03:36:42;;;;;;;11.25;6.35;;;;;;;17.62;100.00;100124.16;8369889;28;20044;-59
2022/06/23 03:41:56;;;;;;;15.40;6.43;;;;;;;17.45;100.00;100128.19;8368280;28;20560;-59
2022/06/23 03:45:40;;;;;;;12.37;7.13;;;;;;;17.51;100.00;100130.16;8366848;28;20121;-59
2022/06/23 03:50:04;;;;;;;12.95;6.70;;;;;;;17.69;100.00;100119.59;8378333;27;20377;-59
2022/06/23 03:54:30;;;;;;;13.13;6.30;;;;;;;17.90;98.73;100126.94;8380007;27;20039;-59
2022/06/23 03:58:48;;;;;;;14.90;6.63;;;;;;;18.04;96.92;100126.00;8366786;28;20072;-59
2022/06/23 04:03:00;;;;;;;14.13;6.28;;;;;;;18.20;95.76;100131.22;8371595;28;20063;-59
2022/06/23 04:07:22;;;;;;;7.18;5.80;;;;;;;18.18;96.39;100131.41;8370633;27;20076;-59
2022/06/23 04:11:44;;;;;;;9.25;6.40;;;;;;;18.10;97.46;100131.53;8351019;28;20064;-59
2022/06/23 04:15:45;;;;;;;10.15;6.47;;;;;;;18.19;97.71;100133.09;8350640;28;20048;-59
2022/06/23 04:19:55;;;;;;;7.50;6.10;;;;;;;18.36;97.57;100139.94;8367555;28;20048;-59
2022/06/23 04:24:00;;;;;;;9.70;6.07;;;;;;;18.61;96.35;100127.53;8370422;28;20048;-59
2022/06/23 04:28:01;;;;;;;14.65;6.38;;;;;;;18.75;95.99;100132.00;8359011;28;20045;-60
2022/06/23 04:32:10;;;;;;;9.15;6.40;;;;;;;18.83;95.22;100131.00;8349909;28;22428;-59
2022/06/23 04:36:21;;;;;;;9.95;5.53;;;;;;;18.99;94.82;100147.94;8374699;28;20041;-59
2022/06/23 04:40:28;;;;;;;11.90;6.18;;;;;;;19.10;93.98;100144.63;8344877;28;20504;-59
2022/06/23 04:44:33;;;;;;;11.57;6.03;;;;;;;19.13;94.47;100144.19;8349042;28;20045;-59
2022/06/23 04:48:55;;;;;;;13.63;6.20;;;;;;;19.38;93.48;100142.66;8335492;28;20443;-59
2022/06/23 04:52:57;;;;;;;9.15;6.60;;;;;;;19.60;92.84;100145.25;8358243;28;20038;-59
2022/06/23 04:57:20;;;;;;;10.88;6.55;;;;;;;19.71;92.33;100139.13;8344219;28;20050;-59
2022/06/23 05:01:25;;;;;;;15.85;6.10;;;;;;;19.85;92.83;100132.63;8349810;28;20055;-59
2022/06/23 05:05:31;;;;;;;12.27;5.95;;;;;;;19.89;91.07;100155.84;8352922;28;20119;-60
2022/06/23 05:09:38;;;;;;;16.00;6.18;;;;;;;19.94;91.97;100153.31;8359156;28;20044;-59
2022/06/23 05:13:47;;;;;;;10.02;6.35;;;;;;;20.16;91.08;100152.91;8356892;28;20048;-59
2022/06/23 05:17:55;;;;;;;10.77;6.40;;;;;;;20.32;91.80;100169.00;8367212;28;20532;-59
2022/06/23 05:21:59;;;;;;;14.73;6.18;;;;;;;20.54;91.56;100175.94;8365058;28;20037;-59
2022/06/23 05:26:07;;;;;;;10.60;6.10;;;;;;;20.64;92.41;100167.25;8372465;28;20093;-59
2022/06/23 05:30:29;;;;;;;18.17;7.00;;;;;;;20.83;90.48;100156.22;8368277;28;20037;-59
2022/06/23 05:34:33;;;;;;;14.10;7.07;;;;;;;21.11;89.40;100169.72;8361583;28;20076;-62
2022/06/23 05:38:45;;;;;;;10.45;7.28;;;;;;;21.50;88.92;100158.50;8357256;28;20507;-60
2022/06/23 05:42:50;;;;;;;9.85;6.57;;;;;;;21.53;89.79;100158.06;8355259;28;20041;-60
2022/06/23 05:46:52;;;;;;;8.98;7.30;;;;;;;21.84;89.00;100158.16;8357295;28;20041;-60
2022/06/23 05:51:02;;;;;;;12.57;7.57;;;;;;;22.08;87.99;100159.25;8388442;28;20033;-60
2022/06/23 05:55:15;;;;;;;16.40;7.80;;;;;;;22.19;88.36;100164.88;8388860;28;21326;-60
2022/06/23 05:59:23;;;;;;;13.52;7.30;;;;;;;22.46;87.92;100166.34;8338939;28;20029;-60
2022/06/23 06:03:32;;;;;;;11.23;7.65;;;;;;;22.74;87.96;100175.00;8339758;28;20044;-60
2022/06/23 06:07:38;;;;;;;13.25;7.22;;;;;;;22.91;88.23;100162.28;8339107;28;20042;-60
2022/06/23 06:11:42;;;;;;;16.20;8.00;;;;;;;23.35;87.17;100168.59;8339707;28;20036;-60
2022/06/23 06:15:48;;;;;;;11.80;7.50;;;;;;;23.55;85.35;100159.00;8370769;28;20093;-60
2022/06/23 06:19:50;;;;;;;12.70;7.38;;;;;;;23.59;85.50;100162.97;8371559;28;20044;-60
2022/06/23 06:28:30;;;;;;;11.18;6.68;;;;;;;23.88;84.28;100167.63;8347773;27;20396;-59
2022/06/23 06:32:37;;;;;;;13.13;6.72;;;;;;;24.05;84.00;100156.78;8350415;28;20037;-59
2022/06/23 06:36:40;;;;;;;11.88;6.57;;;;;;;24.27;83.07;100150.47;8349561;28;20045;-59
2022/06/23 06:40:44;;;;;;;9.47;6.23;;;;;;;24.42;82.70;100159.16;8349870;28;20590;-59
2022/06/23 06:44:48;;;;;;;12.60;6.60;;;;;;;24.83;80.55;100149.94;8349627;28;20041;-59
2022/06/23 06:48:49;;;;;;;9.70;5.57;;;;;;;25.16;79.62;100144.59;8349561;28;20045;-59
2022/06/23 06:52:51;;;;;;;11.23;5.88;;;;;;;25.13;79.51;100149.75;8350228;28;20029;-59
2022/06/23 06:56:55;;;;;;;11.40;6.55;;;;;;;25.24;77.14;100159.94;8349109;28;20037;-59
2022/06/23 07:01:01;;;;;;;12.15;4.97;;;;;;;25.53;75.74;100148.72;8349455;28;20068;-59
2022/06/23 07:05:09;;;;;;;10.27;4.97;;;;;;;25.69;74.49;100145.16;8349790;28;20045;-59
2022/06/23 07:09:34;;;;;;;18.42;5.15;;;;;;;25.95;74.07;100150.06;8349107;28;20036;-59
2022/06/23 07:13:42;;;;;;;10.80;4.80;;;;;;;26.20;72.63;100142.25;8349212;28;20035;-59
2022/06/23 07:17:50;;;;;;;12.85;4.55;;;;;;;26.34;70.31;100146.38;8348872;28;20029;-59
2022/06/23 07:21:58;;;;;;;16.13;4.38;;;;;;;26.46;70.72;100138.81;8348832;28;20044;-59
2022/06/23 07:26:29;;;;;;;9.75;3.53;;;;;;;26.56;69.62;100141.75;8348360;28;20037;-59
2022/06/23 07:30:35;;;;;;;9.25;3.28;;;;;;;26.59;69.38;100130.13;8348426;28;20037;-59
2022/06/23 07:34:41;;;;;;;9.13;3.30;;;;;;;26.75;69.23;100139.56;8348726;28;20039;-59
2022/06/23 07:39:05;;;;;;;12.00;3.58;;;;;;;26.72;68.36;100134.53;8352466;28;20040;-59
2022/06/23 07:43:19;;;;;;;12.32;3.33;;;;;;;26.95;67.48;100127.94;8325957;28;20033;-59
2022/06/23 07:47:20;;;;;;;8.57;3.72;;;;;;;26.90;68.42;100131.47;8325782;28;20107;-59
2022/06/23 07:51:21;;;;;;;6.97;3.45;;;;;;;27.34;67.11;100143.47;8326294;28;20789;-60
2022/06/23 07:55:28;;;;;;;10.18;3.88;;;;;;;27.44;68.05;100146.38;8326159;28;20472;-59
2022/06/23 07:59:36;;;;;;;8.88;3.63;;;;;;;27.64;66.44;100143.81;8325319;28;20117;-60
2022/06/23 08:03:44;;;;;;;10.05;4.47;;;;;;;27.86;66.03;100144.66;8325810;28;20049;-60
2022/06/23 08:07:46;;;;;;;7.85;3.90;;;;;;;27.79;67.21;100141.22;8317367;28;20044;-59
2022/06/23 08:12:55;;;;;;;9.05;3.40;;;;;;;27.79;64.62;100142.06;8325323;28;20067;-59
2022/06/23 08:17:11;;;;;;;10.45;3.92;;;;;;;27.75;64.89;100145.63;8291882;28;20041;-59
2022/06/23 08:20:36;;;;;;;8.55;3.60;;;;;;;28.19;65.35;100138.88;8306944;28;20045;-59
2022/06/23 08:24:38;;;;;;;5.82;3.63;;;;;;;28.29;65.01;100136.16;8322445;28;20079;-59
2022/06/23 08:28:40;;;;;;;7.00;4.47;;;;;;;28.23;62.39;100138.06;8324068;28;20089;-59
2022/06/23 08:32:45;;;;;;;9.13;4.38;;;;;;;28.31;63.81;100129.25;8324892;28;20401;-60
2022/06/23 08:36:49;;;;;;;11.27;4.07;;;;;;;28.34;62.44;100122.31;8313392;28;20029;-60
2022/06/23 08:45:24;;;;;;;8.63;3.78;;;;;;;28.61;61.24;100131.47;8420260;27;20465;-59
2022/06/23 08:49:36;;;;;;;6.60;3.88;;;;;;;28.57;62.09;100127.53;8416672;28;20518;-59
2022/06/23 08:53:51;;;;;;;9.73;3.67;;;;;;;28.50;61.43;100115.78;8416102;28;20261;-59
2022/06/23 09:02:32;;;;;;;12.98;3.63;;;;;;;28.77;61.21;100119.31;8316010;28;20360;-59
2022/06/23 09:06:42;;;;;;;9.10;3.40;;;;;;;29.00;60.51;100132.81;8316964;28;20049;-59
2022/06/23 09:15:28;;;;;;;5.55;3.53;;;;;;;28.89;60.66;100119.97;8411789;27;20435;-59
2022/06/23 09:19:56;;;;;;;14.23;3.97;;;;;;;29.02;61.23;100115.84;8372929;28;20508;-59
2022/06/23 09:24:28;;;;;;;8.95;3.40;;;;;;;29.24;60.18;100122.94;8366592;28;20114;-59
2022/06/23 09:32:57;;;;;;;8.90;3.88;;;;;;;29.55;59.35;100116.38;8350795;27;20421;-60
2022/06/23 09:37:10;;;;;;;;;;;;;;;29.52;59.76;100114.13;8350846;28;20045;-59
2022/06/23 09:41:50;;;;;;;10.00;4.10;;;;;;;29.42;59.48;100102.97;8350556;28;19917;-59
2022/06/23 09:46:30;;;;;;;7.80;3.45;;;;;;;29.77;59.78;100094.75;8349210;28;20672;-59
2022/06/23 09:50:45;;;;;;;10.13;4.00;;;;;;;29.71;59.28;100090.28;8332811;28;20044;-59
2022/06/23 09:55:25;;;;;;;11.20;3.58;;;;;;;29.60;59.29;100082.97;8350157;28;20037;-59
2022/06/23 10:08:59;;;;;;;7.40;3.42;;;;;;;32.29;53.58;100078.88;8319383;28;20372;-59
2022/06/23 10:13:39;;;;;;;4.55;3.08;;;;;;;33.43;52.24;100084.41;8311442;28;20065;-59
2022/06/23 10:18:20;;;;;;;7.88;3.20;;;;;;;34.13;49.79;100076.09;8316845;28;20037;-60
2022/06/23 10:27:02;;;;;;;11.10;2.97;;;;;;;34.81;48.22;100071.50;8403444;27;20458;-60
2022/06/23 10:31:16;;;;;;;6.13;2.50;;;;;;;35.45;47.79;100076.97;8399883;27;20049;-60
2022/06/23 10:35:43;;;;;;;8.18;3.13;;;;;;;35.92;46.05;100070.84;8392894;27;20399;-60
2022/06/23 10:40:01;;;;;;;6.18;3.10;;;;;;;36.00;47.05;100064.44;8399759;27;20036;-60
2022/06/23 10:44:33;;;;;;;6.47;2.58;;;;;;;36.17;46.44;100060.94;8399499;27;20102;-60
2022/06/23 10:49:13;;;;;;;11.50;2.30;;;;;;;36.39;46.00;100058.97;8399211;27;20183;-60
2022/06/23 10:53:54;;;;;;;8.43;2.53;;;;;;;35.68;46.27;100053.38;8394081;27;20404;-60
2022/06/23 10:58:24;;;;;;;5.43;2.23;;;;;;;35.93;46.85;100058.44;8398487;27;20098;-60
2022/06/23 11:03:05;;;;;;;7.47;2.75;;;;;;;36.99;43.81;100057.31;8385838;27;20037;-60
2022/06/23 11:11:52;;;;;;;8.10;2.75;;;;;;;35.56;47.21;100039.03;8328335;27;20406;-60
2022/06/23 11:16:05;;;;;;;7.90;2.40;;;;;;;36.30;46.06;100021.47;8299143;28;20042;-60
2022/06/23 11:20:12;;;;;;;;;;;;;;;36.04;45.38;100040.13;8303640;28;20413;-60
2022/06/23 11:24:52;;;;;;;9.75;2.85;;;;;;;35.91;44.87;100040.22;8293416;28;19920;-60
2022/06/23 11:29:17;;;;;;;7.40;1.95;;;;;;;36.58;44.28;100039.84;8283855;28;20140;-60
2022/06/23 11:33:49;;;;;;;7.75;2.03;;;;;;;36.18;44.75;100040.91;8283978;28;20034;-60
2022/06/23 11:47:04;;;;;;;9.05;2.65;;;;;;;34.74;47.19;100020.50;8362514;27;20958;-61
2022/06/23 11:51:44;;;;;;;6.68;2.55;;;;;;;36.10;46.10;100010.69;8342375;28;20037;-61
2022/06/23 11:55:52;;;;;;;6.45;2.30;;;;;;;35.95;45.87;100008.25;8346344;28;20144;-61
2022/06/23 12:00:08;;;;;;;4.72;1.80;;;;;;;36.95;44.32;99999.91;8327617;28;20053;-61
2022/06/23 12:04:36;;;;;;;6.63;1.90;;;;;;;35.79;45.31;99997.69;8335819;28;20033;-61
2022/06/23 12:08:53;;;;;;;5.90;2.25;;;;;;;35.52;45.47;99992.97;8332433;28;20041;-61
2022/06/23 12:12:58;;;;;;;8.23;2.55;;;;;;;34.84;47.12;100003.44;8320167;28;20026;-61
2022/06/23 12:17:05;;;;;;;6.68;2.85;;;;;;;33.08;49.66;99997.94;8306238;28;20048;-61
2022/06/23 12:21:22;;;;;;;6.70;3.05;;;;;;;32.37;52.13;99980.31;8325917;28;20033;-61
2022/06/23 12:26:02;;;;;;;9.13;2.55;;;;;;;32.12;51.22;99988.94;8313734;28;20486;-61
2022/06/23 12:30:08;;;;;;;4.90;2.20;;;;;;;32.30;53.23;99979.81;8299170;28;20505;-61
2022/06/23 12:34:27;;;;;;;4.40;2.63;;;;;;;31.79;51.95;99973.81;8295002;28;20040;-61
2022/06/23 12:38:41;;;;;;;7.75;2.53;;;;;;;32.48;52.08;99965.09;8346156;28;20749;-60
2022/06/23 12:42:46;;;;;;;7.75;2.20;;;;;;;32.61;52.48;99967.16;8329125;28;20040;-60
2022/06/23 12:47:13;;;;;;;8.90;3.97;;;;;;;32.26;52.73;99961.09;8310957;28;20121;-60
2022/06/23 12:55:54;;;;;;;9.10;2.90;;;;;;;32.24;53.07;99964.19;8386441;27;20383;-60
2022/06/23 13:59:42;;;;;;;9.27;3.45;;;;;;;31.11;53.98;99910.59;10263185;23;20457;-60
2022/06/23 14:03:14;;;;;;;9.40;2.75;;;;;;;31.24;53.22;99903.50;9800894;23;7687876;-60
2022/06/23 14:07:26;;;;;;;7.57;3.17;;;;;;;31.67;53.39;99897.88;10134397;23;20029;-60
2022/06/23 14:12:06;;;;;;;7.50;2.90;;;;;;;31.71;52.77;99898.94;10140178;23;20013;-61
2022/06/23 14:16:20;;;;;;;5.70;3.20;;;;;;;31.67;53.32;99885.84;10116728;23;20018;-61
2022/06/23 14:20:31;;;;;;;7.70;3.50;;;;;;;31.54;52.46;99878.13;10111997;23;20082;-61
2022/06/23 14:24:41;;;;;;;6.22;3.30;;;;;;;31.60;53.05;99869.41;10139478;23;20022;-61
2022/06/23 14:28:51;;;;;;;13.10;3.58;;;;;;;31.54;53.94;99870.59;10082364;23;20116;-61
2022/06/23 14:33:15;;;;;;;8.48;3.30;;;;;;;31.30;53.35;99868.84;10129374;23;20048;-60
2022/06/23 14:37:33;;;;;;;5.22;3.17;;;;;;;31.24;54.38;99858.78;10132006;23;20497;-60
2022/06/23 14:42:02;;;;;;;7.85;3.70;;;;;;;31.42;53.40;99846.94;10132619;23;20469;-60
2022/06/23 14:46:20;;;;;;;8.88;3.00;;;;;;;31.34;54.02;99853.16;10132014;23;20104;-60
2022/06/23 14:54:56;;;;;;;7.30;4.40;;;;;;;31.29;53.46;99850.41;8381581;28;20833;-60
2022/06/23 14:59:37;;;;;;;9.07;3.30;;;;;;;31.32;53.84;99844.25;8377472;28;20033;-60
2022/06/23 15:04:08;;;;;;;6.78;2.85;;;;;;;31.09;53.35;99840.19;8347744;28;21245;-60
2022/06/23 15:08:34;;;;;;;6.15;2.97;;;;;;;31.24;53.16;99845.66;8340290;28;20033;-60
2022/06/23 15:17:20;;;;;;;4.80;2.88;;;;;;;30.81;53.38;99818.63;8393896;27;20398;-61
2022/06/23 15:26:26;;;;;;;7.53;3.97;;;;;;;31.04;54.43;99820.66;8387109;28;20365;-60
2022/06/23 15:30:46;;;;;;;;;;;;;;;31.06;53.92;99817.59;8385737;28;20331;-60
2022/06/23 15:34:54;;;;;;;6.55;3.17;;;;;;;31.26;52.67;99797.88;8354016;28;20045;-60
2022/06/23 15:39:05;;;;;;;6.47;3.45;;;;;;;31.11;53.75;99798.00;8352032;28;20147;-59
2022/06/23 15:43:16;;;;;;;7.72;3.55;;;;;;;31.38;53.86;99789.97;8335809;28;20053;-60
2022/06/23 15:47:39;;;;;;;8.10;3.80;;;;;;;31.19;53.13;99795.41;8336052;28;20053;-61
2022/06/23 15:51:52;;;;;;;8.55;3.53;;;;;;;31.12;53.19;99799.66;8346401;28;20137;-61
2022/06/23 15:56:05;;;;;;;9.70;3.90;;;;;;;31.01;53.04;99792.50;8345919;28;20040;-61
2022/06/23 16:00:39;;;;;;;8.52;3.30;;;;;;;30.92;52.15;99799.84;8345068;28;20059;-60
2022/06/23 16:04:47;;;;;;;6.57;2.92;;;;;;;30.94;52.17;99792.00;8341102;28;20566;-61
2022/06/23 16:08:56;;;;;;;10.25;3.40;;;;;;;31.06;52.16;99784.06;8346101;28;20033;-61
2022/06/23 16:13:00;;;;;;;7.57;3.08;;;;;;;30.96;51.95;99781.38;8345841;28;20033;-61
2022/06/23 16:17:06;;;;;;;11.40;3.50;;;;;;;30.81;52.45;99778.69;8346268;28;20091;-61
2022/06/23 16:21:11;;;;;;;7.72;3.63;;;;;;;30.72;53.40;99772.03;8340967;28;20477;-61
2022/06/23 16:25:28;;;;;;;7.15;3.72;;;;;;;30.68;53.58;99770.94;8338716;28;20049;-61
2022/06/23 16:29:29;;;;;;;12.35;3.13;;;;;;;30.56;53.91;99778.84;8349285;28;20037;-61
2022/06/23 16:33:57;;;;;;;11.18;3.70;;;;;;;30.44;55.39;99770.81;8349664;28;20048;-61
2022/06/23 16:38:06;;;;;;;11.57;3.85;;;;;;;30.23;57.47;99769.28;8348871;28;20036;-61
2022/06/23 16:42:30;;;;;;;12.20;3.95;;;;;;;30.16;57.96;99757.56;8349985;28;20055;-61
2022/06/23 16:46:37;;;;;;;7.63;3.90;;;;;;;30.11;58.51;99761.22;8346842;28;20124;-61
2022/06/23 16:51:04;;;;;;;10.68;4.53;;;;;;;30.05;59.86;99767.09;8339072;28;20052;-61
2022/06/23 16:55:35;;;;;;;7.78;3.53;;;;;;;30.02;60.21;99762.94;8349446;28;20586;-61
2022/06/23 16:59:54;;;;;;;13.85;4.88;;;;;;;30.24;59.16;99766.19;8349221;28;20451;-61
2022/06/23 17:04:03;;;;;;;11.23;4.70;;;;;;;30.36;59.65;99757.47;8344071;28;20029;-61
2022/06/23 17:08:22;;;;;;;12.38;4.88;;;;;;;30.34;59.33;99763.34;8350593;28;20037;-61
2022/06/23 17:12:36;;;;;;;11.45;5.00;;;;;;;29.92;63.25;99774.09;8348619;28;20090;-61
2022/06/23 17:16:48;;;;;;;14.65;4.10;;;;;;;28.96;65.66;99774.50;8347786;28;20487;-61
2022/06/23 17:21:00;;;;;;;14.25;5.40;;;;;;;28.57;68.07;99772.25;8347966;28;20610;-61
2022/06/23 17:25:05;;;;;;;9.25;5.53;;;;;;;28.31;69.47;99766.88;8354077;28;20036;-60
2022/06/23 17:29:17;;;;;;;10.05;5.43;;;;;;;27.97;71.15;99765.66;8352636;28;20044;-60
2022/06/23 17:33:40;;;;;;;11.98;5.50;;;;;;;27.94;71.63;99758.69;8315499;28;20068;-60
2022/06/23 17:37:51;;;;;;;12.35;5.47;;;;;;;28.12;70.27;99757.38;8315729;28;20029;-60
2022/06/23 17:44:00;;;;;;;12.32;5.93;;;;;;;28.43;68.00;99754.41;8318748;28;20041;-60
2022/06/23 17:46:58;;;;;;;10.57;5.28;;;;;;;28.48;66.25;99756.34;8310565;28;20042;-60
2022/06/23 17:51:10;;;;;;;12.48;5.45;;;;;;;28.48;65.68;99750.78;8315210;28;20034;-60
2022/06/23 17:55:31;;;;;;;10.07;4.90;;;;;;;28.45;66.34;99751.34;8314352;28;20033;-60
2022/06/23 17:59:35;;;;;;;13.13;5.20;;;;;;;28.28;67.44;99750.75;8314458;28;20042;-60
2022/06/23 18:03:43;;;;;;;9.07;4.72;;;;;;;28.30;66.74;99748.53;8314099;28;20103;-60
2022/06/23 18:07:54;;;;;;;15.93;5.22;;;;;;;27.99;71.92;99752.31;8314904;28;20043;-60
2022/06/23 18:12:00;;;;;;;13.65;6.28;;;;;;;27.72;73.04;99751.63;8312601;28;20042;-61
2022/06/23 18:16:41;;;;;;;8.23;5.97;;;;;;;27.52;74.91;99752.34;8312179;28;20357;-60
2022/06/23 18:20:53;;;;;;;13.18;5.97;;;;;;;27.37;76.32;99768.06;8309559;28;20322;-60
2022/06/23 18:25:12;;;;;;;13.95;6.00;;;;;;;27.37;76.73;99765.28;8315747;28;20219;-60
2022/06/23 18:29:43;;;;;;;8.77;5.90;;;;;;;27.39;76.88;99763.09;8314065;28;20045;-60
2022/06/23 18:34:02;;;;;;;9.77;5.65;;;;;;;27.26;77.58;99758.00;8307381;28;20350;-60
2022/06/23 18:38:12;;;;;;;8.52;5.38;;;;;;;27.03;77.54;99752.81;8310338;28;20045;-60
2022/06/23 18:42:37;;;;;;;11.75;5.78;;;;;;;26.95;77.68;99761.63;8308380;28;20041;-60
2022/06/23 18:46:47;;;;;;;10.15;5.20;;;;;;;26.77;78.26;99771.16;8305594;28;20146;-60
2022/06/23 18:51:09;;;;;;;12.88;6.22;;;;;;;26.77;79.13;99765.63;8306747;28;20541;-60
2022/06/23 18:55:31;;;;;;;10.30;5.22;;;;;;;26.66;80.78;99761.09;8308244;28;20057;-60
2022/06/23 18:59:49;;;;;;;10.15;5.90;;;;;;;26.62;80.74;99765.47;8307909;28;20037;-60
2022/06/23 19:03:56;;;;;;;12.68;6.05;;;;;;;26.81;77.25;99759.28;8298350;28;20033;-61
2022/06/23 19:08:00;;;;;;;10.63;4.75;;;;;;;26.81;77.15;99758.47;8299985;28;20040;-61
2022/06/23 19:12:17;;;;;;;16.00;5.30;;;;;;;26.75;76.40;99752.00;8315251;28;20062;-61
2022/06/23 19:16:42;;;;;;;15.82;5.68;;;;;;;26.79;75.16;99763.44;8313776;28;20504;-61
2022/06/23 19:20:54;;;;;;;11.32;4.13;;;;;;;26.61;74.46;99759.09;8319433;28;20088;-61
2022/06/23 19:25:34;;;;;;;10.13;3.63;;;;;;;26.49;74.29;99755.63;8317236;28;20564;-61
2022/06/23 19:30:14;;;;;;;5.65;3.00;;;;;;;26.37;74.55;99760.50;8317926;28;20433;-61
2022/06/23 19:34:22;;;;;;;9.05;3.25;;;;;;;26.25;74.42;99751.50;8318776;28;20117;-60
2022/06/23 19:38:55;;;;;;;13.43;3.55;;;;;;;26.18;74.60;99750.88;8315454;28;20045;-61
2022/06/23 19:47:33;;;;;;;10.93;3.30;;;;;;;25.87;75.52;99751.59;8447376;27;20154;-60
2022/06/23 19:51:37;;;;;;;11.10;3.55;;;;;;;25.73;76.19;99754.97;8450521;28;20043;-59
2022/06/23 19:55:40;;;;;;;9.73;3.13;;;;;;;25.67;76.66;99748.53;8451263;28;20046;-59
2022/06/23 20:00:06;;;;;;;7.32;2.70;;;;;;;25.57;76.75;99748.41;8409149;28;20445;-59
2022/06/23 20:04:36;;;;;;;8.35;3.10;;;;;;;25.36;78.92;99751.13;8416658;28;20137;-59
2022/06/23 20:08:56;;;;;;;6.63;3.08;;;;;;;25.20;79.49;99761.13;8403118;28;20040;-59
2022/06/23 20:13:09;;;;;;;12.00;3.28;;;;;;;25.10;79.67;99760.97;8395991;28;20044;-59
2022/06/23 20:17:18;;;;;;;8.25;3.40;;;;;;;24.94;80.85;99761.81;8412924;28;20107;-60
2022/06/23 20:21:58;;;;;;;12.88;3.85;;;;;;;24.66;82.38;99773.78;8419160;28;20115;-59
2022/06/23 20:26:25;;;;;;;9.30;3.25;;;;;;;24.68;81.76;99765.25;8418525;28;20049;-60
2022/06/23 20:30:39;;;;;;;11.45;3.58;;;;;;;24.51;83.60;99764.34;8401097;28;20059;-60
2022/06/23 20:35:05;;;;;;;8.80;3.47;;;;;;;24.29;84.62;99755.09;8383522;28;20111;-61
2022/06/23 20:39:29;;;;;;;14.45;2.83;;;;;;;24.45;83.27;99749.59;8383489;28;20029;-59
2022/06/23 20:52:50;;;;;;;15.63;3.50;;;;;;;24.68;81.39;99751.41;8392715;27;20452;-60
2022/06/23 20:57:05;;;;;;;9.95;3.97;;;;;;;24.63;80.76;99729.16;8381940;28;20047;-60
2022/06/23 21:05:36;;;;;;;10.63;3.30;;;;;;;24.64;81.00;99747.47;8399646;27;20529;-59
2022/06/23 21:09:48;;;;;;;9.38;3.30;;;;;;;24.55;81.75;99740.66;8385986;28;20037;-60
2022/06/23 21:13:53;;;;;;;7.75;3.10;;;;;;;24.45;81.81;99734.94;8383280;28;20043;-59
2022/06/23 21:18:21;;;;;;;8.82;3.45;;;;;;;24.05;84.67;99736.94;8386420;28;20079;-60
2022/06/23 21:27:14;;;;;;;11.68;3.30;;;;;;;23.82;85.76;99725.97;8329653;27;20855;-60
2022/06/23 21:31:24;;;;;;;9.88;3.22;;;;;;;23.82;87.07;99720.44;8340629;28;20382;-60
2022/06/23 21:35:37;;;;;;;17.77;4.57;;;;;;;23.51;88.97;99713.44;8319035;28;20081;-60
2022/06/23 21:39:47;;;;;;;11.43;3.92;;;;;;;23.13;92.21;99699.31;8320652;28;20033;-60
2022/06/23 21:44:00;;;;;;;13.38;3.33;;;;;;;23.13;91.65;99688.28;8320571;28;20060;-60
2022/06/23 21:48:29;;;;;;;4.72;3.03;;;;;;;23.40;89.37;99666.56;8320393;28;20037;-59
2022/06/23 21:52:53;;;;;;;5.68;3.40;;;;;;;23.53;88.86;99655.25;8331407;28;20030;-60
2022/06/23 21:57:26;;;;;;;8.70;4.70;;;;;;;23.53;88.97;99652.47;8320245;28;20446;-60
2022/06/23 22:01:40;;;;;;;9.27;4.30;;;;;;;23.56;88.28;99652.00;8319884;28;20124;-60
2022/06/23 22:05:44;;;;;;;;;;;;;;;23.55;88.28;99656.69;8317361;28;20065;-60
2022/06/23 22:09:51;;;;;;;12.60;4.30;;;;;;;23.56;88.58;99665.78;8313883;28;19913;-60
2022/06/23 22:13:56;;;;;;;6.75;3.85;;;;;;;23.32;89.73;99675.25;8318372;28;20030;-60
2022/06/23 22:17:56;;;;;;;8.32;4.15;;;;;;;23.17;90.90;99683.97;8319150;28;20045;-60
2022/06/23 22:22:11;;;;;;;10.50;4.22;;;;;;;23.14;92.63;99676.19;8319752;28;20041;-60
2022/06/23 22:26:34;;;;;;;8.10;4.25;;;;;;;23.26;91.39;99670.69;8319642;28;20042;-60
2022/06/23 22:30:41;;;;;;;12.30;4.57;;;;;;;22.96;93.20;99677.16;8318376;28;20446;-60
2022/06/23 22:34:53;;;;;;;12.77;4.60;;;;;;;22.96;92.88;99671.66;8316606;28;20166;-60